Terminal Aerodrome Forecast
Issued by NWS Cleveland, OH

Home | Current Version | Previous Version | Text Only | Print | Product List | Glossary On
Versions: 1 2 3 4 5 6 7 8 9 10 11 12 13 14 15 16 17 18 19 20 21 22 23
000
FTUS41 KCLE 272147 AAB
TAFCLE
TAF AMD
KCLE 272147Z 2722/2824 20015G25KT P6SM BKN050
      TEMPO 2722/2723 32020G40KT 2SM TSRA OVC035CB
     FM280000 22008KT P6SM BKN080
      TEMPO 2800/2802 3SM TSRA OVC035CB
     FM280300 27005KT P6SM BKN120
     FM280900 34003KT 6SM BR SKC
     FM281400 03007KT P6SM SKC=

USA.gov is the U.S. government's official web portal to all federal, state and local government web resources and services.